createdAt,value
2016-04-18T00:00:33.224Z,0
2016-04-18T00:01:32.976Z,0
2016-04-18T00:02:42.917Z,0
2016-04-18T00:03:33.045Z,0
2016-04-18T00:04:32.093Z,0
2016-04-18T00:05:31.957Z,0
2016-04-18T00:07:43.149Z,0
2016-04-18T00:08:32.965Z,0
2016-04-18T00:09:32.732Z,0
2016-04-18T00:11:33.237Z,0
2016-04-18T00:12:31.959Z,0
2016-04-18T00:15:32.004Z,0
2016-04-18T00:16:43.751Z,0
2016-04-18T00:17:32.032Z,0
2016-04-18T00:18:32.078Z,0
2016-04-18T00:19:32.890Z,0
2016-04-18T00:20:43.737Z,0
2016-04-18T00:21:32.159Z,0
2016-04-18T00:22:33.474Z,0
2016-04-18T00:23:40.679Z,0
2016-04-18T00:24:33.182Z,0
2016-04-18T00:25:32.492Z,0
2016-04-18T00:26:32.047Z,0
2016-04-18T00:27:41.572Z,0
2016-04-18T00:28:33.080Z,0
2016-04-18T00:29:31.979Z,0
2016-04-18T00:30:33.407Z,0
2016-04-18T00:31:43.131Z,0
2016-04-18T00:32:33.260Z,0
2016-04-18T00:33:31.718Z,0
2016-04-18T00:34:31.878Z,0
2016-04-18T00:35:40.992Z,0
2016-04-18T00:36:33.136Z,0
2016-04-18T00:37:31.921Z,0
2016-04-18T00:38:32.128Z,0
2016-04-18T00:39:43.162Z,0
2016-04-18T00:40:31.884Z,0
2016-04-18T00:41:33.324Z,0
2016-04-18T00:42:33.235Z,0
2016-04-18T00:43:50.022Z,0
2016-04-18T00:44:32.787Z,0
2016-04-18T00:45:32.681Z,0
2016-04-18T00:46:32.105Z,0
2016-04-18T00:48:31.797Z,0
2016-04-18T00:49:31.817Z,0
2016-04-18T00:50:32.945Z,0
2016-04-18T00:51:41.900Z,0
2016-04-18T00:52:33.716Z,0
2016-04-18T00:53:32.858Z,0
2016-04-18T00:54:32.564Z,0
2016-04-18T00:55:33.333Z,0
2016-04-18T00:56:41.883Z,0
2016-04-18T00:57:32.729Z,0
2016-04-18T00:58:33.122Z,0
2016-04-18T01:00:41.472Z,0
2016-04-18T01:01:31.521Z,0
2016-04-18T01:05:30.610Z,0
2016-04-18T01:07:17.631Z,0
2016-04-18T01:09:05.667Z,0
2016-04-18T01:10:43.404Z,0
2016-04-18T01:12:29.332Z,0
2016-04-18T01:14:10.212Z,0
2016-04-18T01:16:00.030Z,0
2016-04-18T01:17:48.910Z,0
2016-04-18T01:19:31.023Z,0
2016-04-18T01:21:20.324Z,0
2016-04-18T01:22:51.846Z,0
2016-04-18T01:24:42.426Z,0
2016-04-18T01:26:25.964Z,0
2016-04-18T01:28:18.813Z,0
2016-04-18T01:30:25.490Z,0
2016-04-18T01:32:00.823Z,0
2016-04-18T01:32:16.088Z,0
2016-04-18T01:33:27.044Z,0
2016-04-18T01:34:24.985Z,0
2016-04-18T01:35:18.035Z,0
2016-04-18T01:37:08.384Z,0
2016-04-18T01:38:31.667Z,0
2016-04-18T01:39:53.672Z,0
2016-04-18T01:41:16.363Z,0
2016-04-18T01:42:51.993Z,0
2016-04-18T01:44:12.137Z,0
2016-04-18T01:45:30.906Z,0
2016-04-18T01:46:50.473Z,0
2016-04-18T01:48:13.194Z,0
2016-04-18T01:50:48.089Z,0
2016-04-18T01:52:06.908Z,0
2016-04-18T01:53:26.161Z,0
2016-04-18T01:54:38.897Z,0
2016-04-18T01:56:00.185Z,0
2016-04-18T01:57:23.609Z,0
2016-04-18T01:58:45.721Z,0
2016-04-18T02:00:10.226Z,0
2016-04-18T02:01:31.729Z,0
2016-04-18T02:02:56.734Z,0
2016-04-18T02:04:18.128Z,0
2016-04-18T02:05:40.490Z,0
2016-04-18T02:06:22.492Z,0
2016-04-18T02:06:58.589Z,0
2016-04-18T02:07:58.030Z,0
2016-04-18T02:08:57.735Z,0
2016-04-18T02:09:58.487Z,0
2016-04-18T02:11:09.365Z,0
2016-04-18T02:11:58.274Z,0
2016-04-18T02:13:06.434Z,0
2016-04-18T02:14:05.420Z,0
2016-04-18T02:15:10.470Z,0
2016-04-18T02:15:58.004Z,0
2016-04-18T02:16:58.287Z,0
2016-04-18T02:18:06.525Z,0
2016-04-18T02:20:05.984Z,0
2016-04-18T02:21:06.345Z,0
2016-04-18T02:22:58.303Z,0
2016-04-18T02:23:57.947Z,0
2016-04-18T02:25:08.324Z,0
2016-04-18T02:25:58.094Z,0
2016-04-18T02:26:58.033Z,0
2016-04-18T02:27:57.583Z,0
2016-04-18T02:29:07.039Z,0
2016-04-18T02:30:07.166Z,0
2016-04-18T02:30:57.513Z,0
2016-04-18T02:32:57.018Z,0
2016-04-18T02:34:06.412Z,0
2016-04-18T02:34:56.961Z,0
2016-04-18T02:35:57.838Z,0
2016-04-18T02:36:56.951Z,0
2016-04-18T02:37:57.750Z,0
2016-04-18T02:39:57.929Z,0
2016-04-18T02:40:57.915Z,0
2016-04-18T02:41:58.090Z,0
2016-04-18T02:42:56.670Z,0
2016-04-18T02:45:57.115Z,0
2016-04-18T02:46:56.822Z,0
2016-04-18T02:47:58.120Z,0
2016-04-18T02:48:56.827Z,0
2016-04-18T02:49:56.861Z,0
2016-04-18T02:51:06.442Z,0
2016-04-18T02:51:57.553Z,0
2016-04-18T02:52:57.259Z,0
2016-04-18T02:53:57.934Z,0
2016-04-18T02:54:58.797Z,0
2016-04-18T02:55:57.674Z,0
2016-04-18T02:56:57.661Z,0
2016-04-18T02:57:57.288Z,0
2016-04-18T02:58:56.792Z,0
2016-04-18T02:59:57.434Z,0
2016-04-18T03:00:57.110Z,0
2016-04-18T03:01:58.065Z,0
2016-04-18T03:02:57.380Z,0
2016-04-18T03:03:57.601Z,0
2016-04-18T03:04:57.057Z,0
2016-04-18T03:05:56.419Z,0
2016-04-18T03:06:57.985Z,0
2016-04-18T03:07:56.769Z,0
2016-04-18T03:08:58.147Z,0
2016-04-18T03:09:58.305Z,0
2016-04-18T03:10:57.605Z,0
2016-04-18T03:11:56.310Z,0
2016-04-18T03:12:56.360Z,0
2016-04-18T03:13:57.410Z,0
2016-04-18T03:14:57.507Z,0
2016-04-18T03:15:56.384Z,0
2016-04-18T03:16:57.621Z,0
2016-04-18T03:18:56.314Z,0
2016-04-18T03:19:57.286Z,0
2016-04-18T03:20:56.116Z,0
2016-04-18T03:21:57.431Z,0
2016-04-18T03:23:57.781Z,0
2016-04-18T03:24:57.299Z,0
2016-04-18T03:25:56.723Z,0
2016-04-18T03:26:56.960Z,0
2016-04-18T03:29:02.074Z,0
2016-04-18T03:30:58.315Z,0
2016-04-18T03:32:57.102Z,0
2016-04-18T03:35:00.388Z,0
2016-04-18T03:37:08.081Z,0
2016-04-18T03:39:03.665Z,0
2016-04-18T03:41:09.967Z,0
2016-04-18T03:43:47.098Z,0
2016-04-18T03:46:07.292Z,0
2016-04-18T03:48:23.939Z,0
2016-04-18T03:50:43.225Z,0
2016-04-18T03:53:05.639Z,0
2016-04-18T03:54:58.269Z,0
2016-04-18T03:57:31.885Z,0
2016-04-18T03:57:48.166Z,0
2016-04-18T03:58:48.825Z,0
2016-04-18T03:59:49.187Z,0
2016-04-18T04:00:48.580Z,0
2016-04-18T04:01:47.739Z,0
2016-04-18T04:02:48.977Z,0
2016-04-18T04:03:47.683Z,0
2016-04-18T04:04:47.904Z,0
2016-04-18T04:05:48.703Z,5
2016-04-18T04:06:47.893Z,5
2016-04-18T04:07:48.646Z,5
2016-04-18T04:08:48.946Z,5
2016-04-18T04:09:47.698Z,5
2016-04-18T04:10:48.513Z,5
2016-04-18T04:11:48.454Z,5
2016-04-18T04:12:57.928Z,5
2016-04-18T04:13:49.146Z,10
2016-04-18T04:14:49.071Z,10
2016-04-18T04:15:48.684Z,10
2016-04-18T04:16:47.842Z,10
2016-04-18T04:17:49.001Z,10
2016-04-18T04:18:48.770Z,15
2016-04-18T04:20:47.587Z,15
2016-04-18T04:21:47.542Z,15
2016-04-18T04:22:48.546Z,20
2016-04-18T04:23:48.798Z,20
2016-04-18T04:24:48.676Z,25
2016-04-18T04:25:48.507Z,25
2016-04-18T04:26:48.556Z,25
2016-04-18T04:27:49.372Z,25
2016-04-18T04:28:47.561Z,25
2016-04-18T04:29:47.300Z,25
2016-04-18T04:30:48.567Z,25
2016-04-18T04:31:47.602Z,30
2016-04-18T04:32:48.775Z,30
2016-04-18T04:33:48.528Z,35
2016-04-18T04:34:48.860Z,35
2016-04-18T04:35:48.315Z,40
2016-04-18T04:36:47.724Z,40
2016-04-18T04:37:48.351Z,40
2016-04-18T04:38:48.338Z,40
2016-04-18T04:39:48.794Z,45
2016-04-18T04:40:58.004Z,45
2016-04-18T04:41:48.457Z,45
2016-04-18T04:42:47.974Z,45
2016-04-18T04:43:48.384Z,50
2016-04-18T04:44:48.557Z,50
2016-04-18T04:45:47.498Z,55
2016-04-18T04:46:50.187Z,55
2016-04-18T04:48:06.474Z,55
2016-04-18T04:48:48.130Z,55
2016-04-18T04:49:48.680Z,60
2016-04-18T04:50:48.355Z,60
2016-04-18T04:51:48.701Z,60
2016-04-18T04:52:58.128Z,60
2016-04-18T04:53:47.238Z,60
2016-04-18T04:54:55.915Z,60
2016-04-18T04:55:48.133Z,60
2016-04-18T04:56:48.527Z,65
2016-04-18T04:57:48.296Z,65
2016-04-18T04:58:48.485Z,70
2016-04-18T04:59:58.522Z,75
2016-04-18T05:00:48.491Z,80
2016-04-18T05:01:48.227Z,85
2016-04-18T05:02:48.590Z,90
2016-04-18T05:03:48.186Z,95
2016-04-18T05:04:48.517Z,95
2016-04-18T05:05:47.004Z,100
2016-04-18T05:06:48.195Z,100
2016-04-18T05:07:48.682Z,105
2016-04-18T05:08:49.028Z,110
2016-04-18T05:09:49.171Z,115
2016-04-18T05:10:48.673Z,125
2016-04-18T05:11:47.176Z,135
2016-04-18T05:12:47.945Z,140
2016-04-18T05:13:48.713Z,140
2016-04-18T05:14:49.309Z,145
2016-04-18T05:15:49.797Z,160
2016-04-18T05:16:48.909Z,175
2016-04-18T05:17:46.927Z,180
2016-04-18T05:18:48.273Z,180
2016-04-18T05:19:49.322Z,185
2016-04-18T05:20:46.716Z,175
2016-04-18T05:21:47.578Z,145
2016-04-18T05:22:48.644Z,135
2016-04-18T05:23:46.865Z,125
2016-04-18T05:24:48.086Z,125
2016-04-18T05:25:46.855Z,135
2016-04-18T05:26:46.404Z,155
2016-04-18T05:27:47.032Z,165
2016-04-18T05:28:47.831Z,180
2016-04-18T05:29:46.668Z,185
2016-04-18T05:30:47.139Z,195
2016-04-18T05:31:46.721Z,195
2016-04-18T05:32:46.567Z,200
2016-04-18T05:34:43.900Z,175
2016-04-18T05:36:16.327Z,160
2016-04-18T05:37:37.877Z,150
2016-04-18T05:39:36.133Z,140
2016-04-18T05:40:46.698Z,130
2016-04-18T05:42:13.312Z,125
2016-04-18T05:43:25.315Z,125
2016-04-18T05:44:51.130Z,135
2016-04-18T05:46:14.026Z,140
2016-04-18T05:47:40.950Z,160
2016-04-18T05:49:05.925Z,175
2016-04-18T05:50:28.615Z,205
2016-04-18T05:51:51.164Z,205
2016-04-18T05:53:16.467Z,205
2016-04-18T05:54:40.704Z,210
2016-04-18T05:56:02.023Z,220
2016-04-18T05:57:25.931Z,220
2016-04-18T05:59:06.530Z,225
2016-04-18T06:00:47.392Z,245
2016-04-18T06:02:24.007Z,245
2016-04-18T06:03:43.150Z,240
2016-04-18T06:03:58.731Z,240
2016-04-18T06:04:59.766Z,250
2016-04-18T06:06:00.065Z,250
2016-04-18T06:06:58.755Z,245
2016-04-18T06:07:58.913Z,250
2016-04-18T06:08:59.651Z,245
2016-04-18T06:09:58.840Z,250
2016-04-18T06:11:00.796Z,255
2016-04-18T06:11:59.518Z,265
2016-04-18T06:13:10.115Z,270
2016-04-18T06:13:58.899Z,275
2016-04-18T06:15:00.167Z,280
2016-04-18T06:15:58.576Z,280
2016-04-18T06:16:58.609Z,280
2016-04-18T06:17:59.894Z,280
2016-04-18T06:18:59.490Z,280
2016-04-18T06:19:58.556Z,280
2016-04-18T06:20:59.589Z,280
2016-04-18T06:21:59.529Z,275
2016-04-18T06:22:59.688Z,285
2016-04-18T06:23:58.456Z,295
2016-04-18T06:24:59.834Z,300
2016-04-18T06:26:00.384Z,300
2016-04-18T06:27:06.450Z,305
2016-04-18T06:27:58.686Z,315
2016-04-18T06:28:59.564Z,320
2016-04-18T06:29:59.364Z,325
2016-04-18T06:31:00.241Z,325
2016-04-18T06:31:59.588Z,330
2016-04-18T06:32:58.480Z,335
2016-04-18T06:33:59.203Z,345
2016-04-18T06:34:59.205Z,350
2016-04-18T06:35:58.536Z,360
2016-04-18T06:36:59.367Z,355
2016-04-18T06:37:59.244Z,355
2016-04-18T06:38:59.403Z,355
2016-04-18T06:39:58.875Z,360
2016-04-18T06:40:59.205Z,380
2016-04-18T06:41:59.052Z,380
2016-04-18T06:42:59.758Z,380
2016-04-18T06:43:59.354Z,385
2016-04-18T06:45:07.076Z,385
2016-04-18T06:45:58.406Z,380
2016-04-18T06:46:59.440Z,380
2016-04-18T06:47:59.756Z,380
2016-04-18T06:48:59.290Z,375
2016-04-18T06:49:58.512Z,380
2016-04-18T06:50:59.076Z,380
2016-04-18T06:51:59.892Z,380
2016-04-18T06:52:59.144Z,390
2016-04-18T06:53:59.647Z,395
2016-04-18T06:54:58.868Z,415
2016-04-18T06:55:59.231Z,530
2016-04-18T06:56:59.311Z,465
2016-04-18T06:57:58.470Z,425
2016-04-18T06:59:00.207Z,525
2016-04-18T06:59:59.428Z,460
2016-04-18T07:00:59.196Z,455
2016-04-18T07:01:59.590Z,440
2016-04-18T07:02:59.233Z,435
2016-04-18T07:03:58.501Z,470
2016-04-18T07:04:58.160Z,405
2016-04-18T07:05:59.444Z,450
2016-04-18T07:06:58.713Z,390
2016-04-18T07:07:59.247Z,410
2016-04-18T07:08:58.110Z,435
2016-04-18T07:09:59.565Z,440
2016-04-18T07:10:59.083Z,475
2016-04-18T07:11:59.492Z,305
2016-04-18T07:12:58.510Z,325
2016-04-18T07:13:58.403Z,360
2016-04-18T07:14:59.251Z,425
2016-04-18T07:16:59.021Z,365
2016-04-18T07:17:59.476Z,225
2016-04-18T07:18:59.448Z,260
2016-04-18T07:19:58.809Z,265
2016-04-18T07:20:59.298Z,325
2016-04-18T07:21:58.416Z,275
2016-04-18T07:22:59.497Z,250
2016-04-18T07:23:59.313Z,250
2016-04-18T07:24:59.050Z,225
2016-04-18T07:25:58.849Z,245
2016-04-18T07:26:59.586Z,230
2016-04-18T07:27:59.089Z,225
2016-04-18T07:28:59.826Z,220
2016-04-18T07:30:00.250Z,215
2016-04-18T07:30:57.988Z,210
2016-04-18T07:31:58.943Z,205
2016-04-18T07:33:08.227Z,205
2016-04-18T07:33:58.808Z,200
2016-04-18T07:34:59.342Z,205
2016-04-18T07:35:59.063Z,205
2016-04-18T07:36:59.253Z,200
2016-04-18T07:37:58.881Z,180
2016-04-18T07:38:57.899Z,180
2016-04-18T07:39:58.495Z,175
2016-04-18T07:40:59.998Z,180
2016-04-18T07:42:05.986Z,180
2016-04-18T07:42:58.206Z,205
2016-04-18T07:43:57.866Z,205
2016-04-18T07:45:00.728Z,215
2016-04-18T07:45:59.824Z,220
2016-04-18T07:46:57.983Z,225
2016-04-18T07:47:58.767Z,225
2016-04-18T07:48:57.755Z,230
2016-04-18T07:49:57.945Z,245
2016-04-18T07:50:58.151Z,255
2016-04-18T07:51:59.200Z,260
2016-04-18T07:52:58.844Z,260
2016-04-18T07:53:57.908Z,250
2016-04-18T07:54:59.192Z,230
2016-04-18T07:55:58.007Z,225
2016-04-18T07:56:58.072Z,230
2016-04-18T07:57:59.450Z,230
2016-04-18T07:58:58.110Z,220
2016-04-18T07:59:57.955Z,200
2016-04-18T08:00:58.833Z,200
2016-04-18T08:01:58.117Z,210
2016-04-18T08:02:57.793Z,215
2016-04-18T08:04:00.420Z,225
2016-04-18T08:05:00.235Z,230
2016-04-18T08:05:58.409Z,235
2016-04-18T08:06:57.756Z,240
2016-04-18T08:07:59.368Z,250
2016-04-18T08:08:59.215Z,255
2016-04-18T08:09:59.342Z,255
2016-04-18T08:10:58.610Z,260
2016-04-18T08:12:07.066Z,265
2016-04-18T08:12:58.100Z,250
2016-04-18T08:13:59.306Z,235
2016-04-18T08:15:01.214Z,230
2016-04-18T08:15:59.467Z,235
2016-04-18T08:16:59.189Z,230
2016-04-18T08:17:58.989Z,220
2016-04-18T08:18:58.944Z,220
2016-04-18T08:20:58.841Z,210
2016-04-18T08:21:57.828Z,215
2016-04-18T08:22:59.018Z,220
2016-04-18T08:23:59.896Z,220
2016-04-18T08:24:57.680Z,225
2016-04-18T08:26:08.854Z,230
2016-04-18T08:26:59.060Z,235
2016-04-18T08:27:58.327Z,235
2016-04-18T08:28:58.940Z,235
2016-04-18T08:29:59.021Z,225
2016-04-18T08:30:59.821Z,210
2016-04-18T08:31:57.574Z,210
2016-04-18T08:33:00.280Z,210
2016-04-18T08:33:59.922Z,205
2016-04-18T08:35:59.366Z,205
2016-04-18T08:36:59.665Z,210
2016-04-18T08:37:58.887Z,215
2016-04-18T08:38:57.530Z,230
2016-04-18T08:39:59.892Z,270
2016-04-18T08:40:58.223Z,275
2016-04-18T08:41:59.022Z,295
2016-04-18T08:42:59.150Z,315
2016-04-18T08:43:58.168Z,330
2016-04-18T08:44:59.265Z,350
2016-04-18T08:46:00.439Z,345
2016-04-18T08:46:59.036Z,335
2016-04-18T08:47:59.038Z,345
2016-04-18T08:48:59.119Z,335
2016-04-18T08:49:59.184Z,325
2016-04-18T08:50:58.656Z,330
2016-04-18T08:51:59.331Z,335
2016-04-18T08:52:59.395Z,350
2016-04-18T08:53:57.555Z,370
2016-04-18T08:54:59.479Z,375
2016-04-18T08:55:58.997Z,370
2016-04-18T08:57:00.124Z,380
2016-04-18T08:57:59.690Z,390
2016-04-18T08:58:58.099Z,410
2016-04-18T08:59:59.429Z,400
2016-04-18T09:01:08.136Z,390
2016-04-18T09:02:07.154Z,380
2016-04-18T09:02:57.641Z,370
2016-04-18T09:04:00.284Z,365
2016-04-18T09:05:00.694Z,345
2016-04-18T09:06:00.837Z,335
2016-04-18T09:07:01.840Z,320
2016-04-18T09:08:01.046Z,300
2016-04-18T09:09:01.330Z,275
2016-04-18T09:10:00.659Z,280
2016-04-18T09:11:01.068Z,300
2016-04-18T09:12:00.635Z,300
